createdAt,value
2022-12-11T00:00:27.415Z,-0.98
2022-12-11T00:01:27.468Z,-1.02
2022-12-11T00:02:27.420Z,-1.05
2022-12-11T00:03:27.506Z,-1.09
2022-12-11T00:04:27.377Z,-1.15
2022-12-11T00:05:27.384Z,-1.22
2022-12-11T00:06:27.331Z,-1.20
2022-12-11T00:07:27.396Z,-1.22
2022-12-11T00:08:27.362Z,-1.23
2022-12-11T00:09:27.362Z,-1.28
2022-12-11T00:10:27.297Z,-1.28
2022-12-11T00:11:27.321Z,-1.30
2022-12-11T00:12:27.264Z,-1.31
2022-12-11T00:13:27.442Z,-1.33
2022-12-11T00:14:27.241Z,-1.35
2022-12-11T00:15:27.282Z,-1.40
2022-12-11T00:16:27.525Z,-1.40
2022-12-11T00:17:27.178Z,-1.45
2022-12-11T00:18:27.281Z,-1.51
2022-12-11T00:19:27.187Z,-1.51
2022-12-11T00:20:27.299Z,-1.52
2022-12-11T00:21:27.330Z,-1.52
2022-12-11T00:22:27.126Z,-1.52
2022-12-11T00:23:27.199Z,-1.55
2022-12-11T00:24:27.095Z,-1.55
2022-12-11T00:25:27.311Z,-1.58
2022-12-11T00:26:27.113Z,-1.56
2022-12-11T00:27:27.122Z,-1.58
2022-12-11T00:28:27.061Z,-1.55
2022-12-11T00:29:27.134Z,-1.55
2022-12-11T00:30:27.028Z,-1.55
2022-12-11T00:31:27.254Z,-1.55
2022-12-11T00:32:28.419Z,-1.58
2022-12-11T00:33:27.095Z,-1.55
2022-12-11T00:34:26.986Z,-1.58
2022-12-11T00:35:27.077Z,-1.55
2022-12-11T00:36:27.010Z,-1.54
2022-12-11T00:37:27.133Z,-1.51
2022-12-11T00:38:26.978Z,-1.43
2022-12-11T00:39:27.008Z,-1.41
2022-12-11T00:40:26.912Z,-1.41
2022-12-11T00:41:27.027Z,-1.41
2022-12-11T00:42:27.010Z,-1.46
2022-12-11T00:43:26.889Z,-1.49
2022-12-11T00:44:26.956Z,-1.56
2022-12-11T00:45:26.828Z,-1.62
2022-12-11T00:46:26.962Z,-1.66
2022-12-11T00:47:26.794Z,-1.70
2022-12-11T00:48:26.980Z,-1.70
2022-12-11T00:49:26.811Z,-1.67
2022-12-11T00:50:27.029Z,-1.64
2022-12-11T00:51:26.760Z,-1.64
2022-12-11T00:52:27.023Z,-1.58
2022-12-11T00:53:26.744Z,-1.55
2022-12-11T00:54:26.866Z,-1.51
2022-12-11T00:55:26.701Z,-1.48
2022-12-11T00:56:26.840Z,-1.45
2022-12-11T00:57:26.668Z,-1.46
2022-12-11T00:58:26.876Z,-1.48
2022-12-11T00:59:26.706Z,-1.48
2022-12-11T01:00:26.840Z,-1.48
2022-12-11T01:01:26.800Z,-1.48
2022-12-11T01:02:26.787Z,-1.48
2022-12-11T01:03:26.630Z,-1.51
2022-12-11T01:04:26.712Z,-1.55
2022-12-11T01:05:26.597Z,-1.55
2022-12-11T01:06:26.675Z,-1.58
2022-12-11T01:07:26.574Z,-1.59
2022-12-11T01:08:26.833Z,-1.62
2022-12-11T01:09:26.584Z,-1.62
2022-12-11T01:10:26.761Z,-1.64
2022-12-11T01:11:26.549Z,-1.66
2022-12-11T01:12:26.631Z,-1.66
2022-12-11T01:13:26.518Z,-1.66
2022-12-11T01:14:26.677Z,-1.69
2022-12-11T01:15:26.477Z,-1.70
2022-12-11T01:16:26.677Z,-1.73
2022-12-11T01:17:26.454Z,-1.74
2022-12-11T01:18:26.671Z,-1.79
2022-12-11T01:19:26.448Z,-1.80
2022-12-11T01:20:26.522Z,-1.84
2022-12-11T01:21:26.440Z,-1.82
2022-12-11T01:22:26.486Z,-1.84
2022-12-11T01:23:26.372Z,-1.84
2022-12-11T01:24:26.523Z,-1.87
2022-12-11T01:25:26.358Z,-1.98
2022-12-11T01:26:26.556Z,-2.10
2022-12-11T01:27:26.341Z,-2.20
2022-12-11T01:28:26.538Z,-2.27
2022-12-11T01:29:26.314Z,-2.34
2022-12-11T01:30:26.539Z,-2.42
2022-12-11T01:31:26.307Z,-2.40
2022-12-11T01:32:26.398Z,-2.37
2022-12-11T01:33:26.261Z,-2.34
2022-12-11T01:34:26.364Z,-2.34
2022-12-11T01:35:26.244Z,-2.34
2022-12-11T01:36:26.378Z,-2.27
2022-12-11T01:37:26.252Z,-2.26
2022-12-11T01:38:26.395Z,-2.29
2022-12-11T01:39:26.190Z,-2.29
2022-12-11T01:40:26.307Z,-2.32
2022-12-11T01:41:26.202Z,-2.35
2022-12-11T01:42:26.336Z,-2.32
2022-12-11T01:43:26.139Z,-2.26
2022-12-11T01:44:26.323Z,-2.21
2022-12-11T01:45:27.231Z,-2.16
2022-12-11T01:46:26.448Z,-2.08
2022-12-11T01:47:26.109Z,-2.03
2022-12-11T01:48:26.149Z,-1.95
2022-12-11T01:49:26.102Z,-1.87
2022-12-11T01:50:26.171Z,-1.84
2022-12-11T01:51:26.048Z,-1.72
2022-12-11T01:52:26.185Z,-1.66
2022-12-11T01:53:26.085Z,-1.61
2022-12-11T01:54:26.110Z,-1.59
2022-12-11T01:55:26.003Z,-1.55
2022-12-11T01:56:26.135Z,-1.54
2022-12-11T01:57:25.959Z,-1.55
2022-12-11T01:58:26.074Z,-1.54
2022-12-11T01:59:25.943Z,-1.48
2022-12-11T02:00:26.043Z,-1.49
2022-12-11T02:01:25.927Z,-1.48
2022-12-11T02:02:26.105Z,-1.48
2022-12-11T02:03:25.915Z,-1.49
2022-12-11T02:04:25.978Z,-1.46
2022-12-11T02:05:25.874Z,-1.45
2022-12-11T02:06:32.098Z,-1.46
2022-12-11T02:07:26.007Z,-1.45
2022-12-11T02:08:25.844Z,-1.49
2022-12-11T02:09:26.064Z,-1.51
2022-12-11T02:10:25.792Z,-1.49
2022-12-11T02:11:26.030Z,-1.49
2022-12-11T02:12:25.770Z,-1.48
2022-12-11T02:13:26.048Z,-1.48
2022-12-11T02:14:25.743Z,-1.51
2022-12-11T02:15:25.925Z,-1.54
2022-12-11T02:16:25.969Z,-1.55
2022-12-11T02:17:25.742Z,-1.56
2022-12-11T02:18:25.944Z,-1.59
2022-12-11T02:19:25.725Z,-1.64
2022-12-11T02:20:25.768Z,-1.69
2022-12-11T02:21:25.710Z,-1.73
2022-12-11T02:22:25.784Z,-1.80
2022-12-11T02:23:25.658Z,-1.87
2022-12-11T02:24:25.820Z,-1.87
2022-12-11T02:25:25.632Z,-1.90
2022-12-11T02:26:25.852Z,-1.92
2022-12-11T02:27:25.646Z,-1.95
2022-12-11T02:28:25.885Z,-1.92
2022-12-11T02:29:25.589Z,-1.90
2022-12-11T02:30:25.623Z,-1.84
2022-12-11T02:31:25.616Z,-1.80
2022-12-11T02:32:25.674Z,-1.80
2022-12-11T02:33:25.543Z,-1.82
2022-12-11T02:34:25.668Z,-1.82
2022-12-11T02:35:25.512Z,-1.80
2022-12-11T02:36:25.582Z,-1.73
2022-12-11T02:37:25.503Z,-1.76
2022-12-11T02:38:25.630Z,-1.73
2022-12-11T02:39:25.446Z,-1.74
2022-12-11T02:40:25.613Z,-1.74
2022-12-11T02:41:25.438Z,-1.77
2022-12-11T02:42:25.558Z,-1.80
2022-12-11T02:43:25.454Z,-1.80
2022-12-11T02:44:25.567Z,-1.85
2022-12-11T02:45:25.413Z,-1.94
2022-12-11T02:46:25.453Z,-1.98
2022-12-11T02:47:25.409Z,-2.03
2022-12-11T02:48:25.450Z,-2.06
2022-12-11T02:49:25.372Z,-2.12
2022-12-11T02:50:25.454Z,-2.20
2022-12-11T02:51:25.329Z,-2.24
2022-12-11T02:52:25.491Z,-2.24
2022-12-11T02:53:25.291Z,-2.27
2022-12-11T02:54:25.438Z,-2.27
2022-12-11T02:55:25.259Z,-2.29
2022-12-11T02:56:25.399Z,-2.32
2022-12-11T02:57:25.247Z,-2.34
2022-12-11T02:58:25.317Z,-2.34
2022-12-11T02:59:25.267Z,-2.32
2022-12-11T03:00:25.379Z,-2.34
2022-12-11T03:01:25.213Z,-2.32
2022-12-11T03:02:25.423Z,-2.30
2022-12-11T03:03:25.422Z,-2.26
2022-12-11T03:04:25.271Z,-2.27
2022-12-11T03:05:25.188Z,-2.30
2022-12-11T03:06:25.376Z,-2.35
2022-12-11T03:07:25.126Z,-2.43
2022-12-11T03:08:25.273Z,-2.48
2022-12-11T03:09:25.103Z,-2.45
2022-12-11T03:10:25.247Z,-2.45
2022-12-11T03:11:25.080Z,-2.43
2022-12-11T03:12:25.318Z,-2.42
2022-12-11T03:13:25.239Z,-2.48
2022-12-11T03:14:25.013Z,-2.46
2022-12-11T03:15:25.206Z,-2.45
2022-12-11T03:16:25.021Z,-2.40
2022-12-11T03:17:25.218Z,-2.37
2022-12-11T03:18:25.180Z,-2.32
2022-12-11T03:19:24.978Z,-2.30
2022-12-11T03:20:25.182Z,-2.24
2022-12-11T03:21:24.965Z,-2.20
2022-12-11T03:22:25.129Z,-2.13
2022-12-11T03:23:25.048Z,-2.06
2022-12-11T03:24:24.895Z,-2.06
2022-12-11T03:25:25.144Z,-2.05
2022-12-11T03:26:24.872Z,-2.02
2022-12-11T03:27:25.185Z,-2.02
2022-12-11T03:28:24.984Z,-2.02
2022-12-11T03:29:24.856Z,-2.00
2022-12-11T03:30:24.981Z,-1.98
2022-12-11T03:31:24.817Z,-2.03
2022-12-11T03:32:24.983Z,-2.06
2022-12-11T03:33:24.802Z,-2.12
2022-12-11T03:34:24.950Z,-2.20
2022-12-11T03:35:24.818Z,-2.24
2022-12-11T03:36:24.878Z,-2.30
2022-12-11T03:37:24.753Z,-2.34
2022-12-11T03:38:24.928Z,-2.35
2022-12-11T03:39:24.727Z,-2.42
2022-12-11T03:40:24.802Z,-2.40
2022-12-11T03:41:24.722Z,-2.43
2022-12-11T03:42:24.816Z,-2.49
2022-12-11T03:43:24.694Z,-2.49
2022-12-11T03:44:24.860Z,-2.49
2022-12-11T03:45:24.677Z,-2.48
2022-12-11T03:46:24.872Z,-2.46
2022-12-11T03:47:24.638Z,-2.48
2022-12-11T03:48:24.909Z,-2.49
2022-12-11T03:49:24.777Z,-2.53
2022-12-11T03:50:24.584Z,-2.55
2022-12-11T03:51:27.159Z,-2.60
2022-12-11T03:52:24.561Z,-2.60
2022-12-11T03:53:24.708Z,-2.63
2022-12-11T03:54:24.738Z,-2.68
2022-12-11T03:55:24.533Z,-2.68
2022-12-11T03:56:24.610Z,-2.68
2022-12-11T03:57:24.511Z,-2.70
2022-12-11T03:58:24.626Z,-2.71
2022-12-11T03:59:24.518Z,-2.71
2022-12-11T04:00:24.632Z,-2.73
2022-12-11T04:01:24.543Z,-2.73
2022-12-11T04:02:24.641Z,-2.74
2022-12-11T04:03:24.422Z,-2.77
2022-12-11T04:04:24.478Z,-2.79
2022-12-11T04:05:24.439Z,-2.84
2022-12-11T04:06:24.471Z,-2.85
2022-12-11T04:07:24.392Z,-2.86
2022-12-11T04:08:24.396Z,-2.91
2022-12-11T04:09:24.378Z,-2.91
2022-12-11T04:10:24.532Z,-2.94
2022-12-11T04:11:24.346Z,-2.97
2022-12-11T04:12:24.509Z,-2.97
2022-12-11T04:13:24.303Z,-2.99
2022-12-11T04:14:24.531Z,-2.99
2022-12-11T04:15:24.274Z,-2.94
2022-12-11T04:16:24.393Z,-2.96
2022-12-11T04:17:24.262Z,-2.94
2022-12-11T04:18:24.340Z,-2.91
2022-12-11T04:19:24.247Z,-2.86
2022-12-11T04:20:24.358Z,-2.85
2022-12-11T04:21:24.257Z,-2.85
2022-12-11T04:22:24.369Z,-2.88
2022-12-11T04:23:24.235Z,-2.91
2022-12-11T04:24:24.272Z,-2.94
2022-12-11T04:25:24.309Z,-2.97
2022-12-11T04:26:24.128Z,-3.03
2022-12-11T04:27:24.219Z,-3.09
2022-12-11T04:28:24.136Z,-3.09
2022-12-11T04:29:24.237Z,-3.09
2022-12-11T04:30:26.906Z,-3.10
2022-12-11T04:31:24.153Z,-3.10
2022-12-11T04:32:24.133Z,-3.09
2022-12-11T04:33:24.099Z,-3.17
2022-12-11T04:34:24.202Z,-3.21
2022-12-11T04:35:24.046Z,-3.20
2022-12-11T04:36:24.064Z,-3.23
2022-12-11T04:37:24.033Z,-3.31
2022-12-11T04:38:24.221Z,-3.31
2022-12-11T04:39:24.006Z,-3.28
2022-12-11T04:40:23.992Z,-3.30
2022-12-11T04:41:23.978Z,-3.30
2022-12-11T04:42:24.116Z,-3.30
2022-12-11T04:43:24.167Z,-3.30
2022-12-11T04:44:24.049Z,-3.31
2022-12-11T04:45:23.927Z,-3.31
2022-12-11T04:46:23.957Z,-3.31
2022-12-11T04:47:23.889Z,-3.35
2022-12-11T04:48:23.932Z,-3.31
2022-12-11T04:49:23.893Z,-3.28
2022-12-11T04:50:23.999Z,-3.30
2022-12-11T04:51:23.976Z,-3.31
2022-12-11T04:52:23.807Z,-3.30
2022-12-11T04:53:23.882Z,-3.30
2022-12-11T04:54:23.794Z,-3.30
2022-12-11T04:55:23.904Z,-3.31
2022-12-11T04:56:23.802Z,-3.30
2022-12-11T04:57:23.771Z,-3.31
2022-12-11T04:58:23.907Z,-3.35
2022-12-11T04:59:23.773Z,-3.36
2022-12-11T05:00:23.915Z,-3.36
2022-12-11T05:01:23.895Z,-3.39
2022-12-11T05:02:23.885Z,-3.41
2022-12-11T05:03:23.716Z,-3.42
2022-12-11T05:04:23.840Z,-3.43
2022-12-11T05:05:23.684Z,-3.46
2022-12-11T05:06:23.802Z,-3.53
2022-12-11T05:07:23.642Z,-3.53
2022-12-11T05:08:23.715Z,-3.52
2022-12-11T05:09:23.633Z,-3.48
2022-12-11T05:10:23.701Z,-3.46
2022-12-11T05:11:23.641Z,-3.43
2022-12-11T05:12:23.698Z,-3.43
2022-12-11T05:13:23.561Z,-3.39
2022-12-11T05:14:23.625Z,-3.41
2022-12-11T05:15:23.529Z,-3.36
2022-12-11T05:16:23.843Z,-3.36
2022-12-11T05:17:23.628Z,-3.35
2022-12-11T05:18:23.534Z,-3.35
2022-12-11T05:19:23.651Z,-3.33
2022-12-11T05:20:23.510Z,-3.30
2022-12-11T05:21:23.552Z,-3.28
2022-12-11T05:22:23.619Z,-3.27
2022-12-11T05:23:23.434Z,-3.30
2022-12-11T05:24:23.495Z,-3.27
2022-12-11T05:25:23.407Z,-3.24
2022-12-11T05:26:23.503Z,-3.21
2022-12-11T05:27:23.408Z,-3.24
2022-12-11T05:28:23.622Z,-3.27
2022-12-11T05:29:23.361Z,-3.27
2022-12-11T05:30:23.425Z,-3.24
2022-12-11T05:31:23.373Z,-3.24
2022-12-11T05:32:23.497Z,-3.25
2022-12-11T05:33:23.320Z,-3.21
2022-12-11T05:34:23.452Z,-3.20
2022-12-11T05:35:23.288Z,-3.20
2022-12-11T05:36:23.470Z,-3.24
2022-12-11T05:37:23.293Z,-3.23
2022-12-11T05:38:23.450Z,-3.27
2022-12-11T05:39:23.262Z,-3.27
2022-12-11T05:40:23.405Z,-3.27
2022-12-11T05:41:23.203Z,-3.28
2022-12-11T05:42:28.567Z,-3.27
2022-12-11T05:43:23.213Z,-3.24
2022-12-11T05:44:23.338Z,-3.21
2022-12-11T05:45:23.153Z,-3.21
2022-12-11T05:46:23.402Z,-3.20
2022-12-11T05:47:23.136Z,-3.23
2022-12-11T05:48:23.349Z,-3.24
2022-12-11T05:49:28.995Z,-3.24
2022-12-11T05:50:23.118Z,-3.21
2022-12-11T05:51:23.157Z,-3.24
2022-12-11T05:52:23.095Z,-3.28
2022-12-11T05:53:23.164Z,-3.31
2022-12-11T05:54:23.108Z,-3.36
2022-12-11T05:55:23.110Z,-3.38
2022-12-11T05:56:23.064Z,-3.39
2022-12-11T05:57:23.189Z,-3.42
2022-12-11T05:58:23.028Z,-3.41
2022-12-11T05:59:23.123Z,-3.41
2022-12-11T06:00:23.031Z,-3.41
2022-12-11T06:01:23.021Z,-3.39
2022-12-11T06:02:23.035Z,-3.42
2022-12-11T06:03:23.048Z,-3.39
2022-12-11T06:04:22.985Z,-3.41
2022-12-11T06:05:23.197Z,-3.36
2022-12-11T06:06:22.928Z,-3.36
2022-12-11T06:07:22.952Z,-3.33
2022-12-11T06:08:22.948Z,-3.35
2022-12-11T06:09:22.993Z,-3.30
2022-12-11T06:10:22.922Z,-3.28
2022-12-11T06:11:24.287Z,-3.33
2022-12-11T06:12:22.884Z,-3.36
2022-12-11T06:13:22.899Z,-3.43
2022-12-11T06:14:23.021Z,-3.46
2022-12-11T06:15:22.821Z,-3.52
2022-12-11T06:16:23.134Z,-3.59
2022-12-11T06:17:22.780Z,-3.60
2022-12-11T06:18:22.921Z,-3.60
2022-12-11T06:19:22.953Z,-3.62
2022-12-11T06:20:22.803Z,-3.64
2022-12-11T06:21:22.912Z,-3.69
2022-12-11T06:22:22.756Z,-3.71
2022-12-11T06:23:22.867Z,-3.76
2022-12-11T06:24:22.767Z,-3.76
2022-12-11T06:25:22.783Z,-3.78
2022-12-11T06:26:22.720Z,-3.76
2022-12-11T06:27:22.801Z,-3.79
2022-12-11T06:28:22.665Z,-3.81
2022-12-11T06:29:22.810Z,-3.81
2022-12-11T06:30:22.680Z,-3.79
2022-12-11T06:31:22.679Z,-3.76
2022-12-11T06:32:22.798Z,-3.75
2022-12-11T06:33:22.596Z,-3.72
2022-12-11T06:34:22.860Z,-3.72
2022-12-11T06:35:22.593Z,-3.69
2022-12-11T06:36:22.785Z,-3.64
2022-12-11T06:37:22.547Z,-3.63
2022-12-11T06:38:22.737Z,-3.62
2022-12-11T06:39:22.529Z,-3.60
2022-12-11T06:40:22.691Z,-3.60
2022-12-11T06:41:22.505Z,-3.59
2022-12-11T06:42:22.769Z,-3.60
2022-12-11T06:43:22.487Z,-3.62
2022-12-11T06:44:22.715Z,-3.62
2022-12-11T06:45:22.527Z,-3.63
2022-12-11T06:46:22.559Z,-3.63
2022-12-11T06:47:22.583Z,-3.60
2022-12-11T06:48:22.448Z,-3.63
2022-12-11T06:49:22.540Z,-3.62
2022-12-11T06:50:22.412Z,-3.60
2022-12-11T06:51:22.483Z,-3.62
2022-12-11T06:52:22.461Z,-3.62
2022-12-11T06:53:22.560Z,-3.60
2022-12-11T06:54:22.454Z,-3.60
2022-12-11T06:55:22.503Z,-3.57
2022-12-11T06:56:22.337Z,-3.59
2022-12-11T06:57:22.494Z,-3.56
2022-12-11T06:58:22.324Z,-3.57
2022-12-11T06:59:22.481Z,-3.57
2022-12-11T07:00:22.297Z,-3.53
2022-12-11T07:01:22.401Z,-3.54
2022-12-11T07:02:22.352Z,-3.54
2022-12-11T07:03:22.330Z,-3.54
2022-12-11T07:04:22.282Z,-3.49
2022-12-11T07:05:22.354Z,-3.53
2022-12-11T07:06:22.218Z,-3.52
2022-12-11T07:07:22.369Z,-3.48
2022-12-11T07:08:22.246Z,-3.52
2022-12-11T07:09:22.462Z,-3.56
2022-12-11T07:10:22.178Z,-3.60
2022-12-11T07:11:22.631Z,-3.62
2022-12-11T07:12:22.154Z,-3.64
2022-12-11T07:13:22.201Z,-3.66
2022-12-11T07:14:22.112Z,-3.63
2022-12-11T07:15:22.214Z,-3.60
2022-12-11T07:16:22.308Z,-3.59
2022-12-11T07:17:22.090Z,-3.60
2022-12-11T07:18:22.232Z,-3.60
2022-12-11T07:19:22.038Z,-3.60
2022-12-11T07:20:22.275Z,-3.62
2022-12-11T07:21:22.024Z,-3.64
2022-12-11T07:22:22.222Z,-3.63
2022-12-11T07:23:22.007Z,-3.62
2022-12-11T07:24:22.240Z,-3.63
2022-12-11T07:25:21.970Z,-3.59
2022-12-11T07:26:22.122Z,-3.57
2022-12-11T07:27:22.010Z,-3.52
2022-12-11T07:28:22.010Z,-3.49
2022-12-11T07:29:21.938Z,-3.48
2022-12-11T07:30:22.031Z,-3.49
2022-12-11T07:31:22.008Z,-3.46
2022-12-11T07:32:22.051Z,-3.49
2022-12-11T07:33:21.923Z,-3.49
2022-12-11T07:34:21.967Z,-3.48
2022-12-11T07:35:21.851Z,-3.43
2022-12-11T07:36:21.966Z,-3.41
2022-12-11T07:37:21.831Z,-3.41
2022-12-11T07:38:21.945Z,-3.39
2022-12-11T07:39:21.824Z,-3.36
2022-12-11T07:40:21.897Z,-3.36
2022-12-11T07:41:21.762Z,-3.35
2022-12-11T07:42:21.925Z,-3.30
2022-12-11T07:43:21.774Z,-3.28
2022-12-11T07:44:21.972Z,-3.28
2022-12-11T07:45:21.717Z,-3.23
2022-12-11T07:46:21.993Z,-3.23
2022-12-11T07:47:21.725Z,-3.17
2022-12-11T07:48:21.895Z,-3.10
2022-12-11T07:49:22.658Z,-3.09
2022-12-11T07:50:21.773Z,-3.05
2022-12-11T07:51:21.705Z,-3.02
2022-12-11T07:52:21.790Z,-2.97
2022-12-11T07:53:21.656Z,-2.94
2022-12-11T07:54:21.842Z,-2.94
2022-12-11T07:55:21.611Z,-2.96
2022-12-11T07:56:21.749Z,-2.96
2022-12-11T07:57:21.584Z,-3.00
2022-12-11T07:58:21.711Z,-3.00
2022-12-11T07:59:21.557Z,-2.99
2022-12-11T08:00:21.688Z,-3.03
2022-12-11T08:01:21.630Z,-3.05
2022-12-11T08:02:21.655Z,-3.06
2022-12-11T08:03:21.621Z,-3.06
2022-12-11T08:04:21.540Z,-3.05
2022-12-11T08:05:21.644Z,-3.03
2022-12-11T08:06:21.529Z,-3.05
2022-12-11T08:07:21.559Z,-3.05
2022-12-11T08:08:21.616Z,-3.07
2022-12-11T08:09:21.577Z,-3.10
2022-12-11T08:10:21.651Z,-3.15
2022-12-11T08:11:21.421Z,-3.14
2022-12-11T08:12:21.628Z,-3.14
2022-12-11T08:13:21.402Z,-3.14
2022-12-11T08:14:21.634Z,-3.12
2022-12-11T08:15:21.383Z,-3.09
2022-12-11T08:16:21.561Z,-3.02
2022-12-11T08:17:25.889Z,-3.02
2022-12-11T08:18:21.369Z,-3.05
2022-12-11T08:19:21.472Z,-3.05
2022-12-11T08:20:21.334Z,-3.03
2022-12-11T08:21:21.507Z,-3.06
2022-12-11T08:22:21.292Z,-3.03
2022-12-11T08:23:21.365Z,-3.06
2022-12-11T08:24:21.268Z,-3.06
2022-12-11T08:25:21.386Z,-3.05
2022-12-11T08:26:21.312Z,-3.03
2022-12-11T08:27:21.464Z,-3.06
2022-12-11T08:28:21.262Z,-3.02
2022-12-11T08:29:21.412Z,-2.94
2022-12-11T08:30:21.205Z,-2.88
2022-12-11T08:31:21.538Z,-2.81
2022-12-11T08:32:21.190Z,-2.73
2022-12-11T08:33:21.350Z,-2.66
2022-12-11T08:34:21.256Z,-2.63
2022-12-11T08:35:21.252Z,-2.55
2022-12-11T08:36:21.275Z,-2.48
2022-12-11T08:37:21.088Z,-2.39
2022-12-11T08:38:25.427Z,-2.24
2022-12-11T08:39:21.241Z,-2.20
2022-12-11T08:40:21.096Z,-2.13
2022-12-11T08:41:21.348Z,-2.08
2022-12-11T08:42:21.101Z,-2.06
2022-12-11T08:43:21.191Z,-2.05
2022-12-11T08:44:21.061Z,-2.02
2022-12-11T08:45:21.237Z,-2.03
2022-12-11T08:46:21.124Z,-2.03
2022-12-11T08:47:21.265Z,-1.97
2022-12-11T08:48:21.065Z,-1.97
2022-12-11T08:49:21.192Z,-1.95
2022-12-11T08:50:20.984Z,-1.94
2022-12-11T08:51:21.187Z,-1.94
2022-12-11T08:52:20.969Z,-1.92
2022-12-11T08:53:21.174Z,-1.88
2022-12-11T08:54:20.988Z,-1.90
2022-12-11T08:55:20.994Z,-1.84
2022-12-11T08:56:20.881Z,-1.79
2022-12-11T08:57:20.995Z,-1.80
2022-12-11T08:58:20.852Z,-1.77
2022-12-11T08:59:21.124Z,-1.69
2022-12-11T09:00:20.991Z,-1.58
2022-12-11T09:01:20.874Z,-1.52
2022-12-11T09:02:20.961Z,-1.48
2022-12-11T09:03:20.784Z,-1.45
2022-12-11T09:04:20.931Z,-1.40
2022-12-11T09:05:21.068Z,-1.35
2022-12-11T09:06:20.816Z,-1.23
2022-12-11T09:07:20.948Z,-1.23
2022-12-11T09:08:20.822Z,-1.17
2022-12-11T09:09:20.891Z,-1.10
2022-12-11T09:10:20.802Z,-1.05
2022-12-11T09:11:20.786Z,-0.91
2022-12-11T09:12:20.697Z,-0.67
2022-12-11T09:13:20.809Z,-0.44
2022-12-11T09:14:20.801Z,-0.19
2022-12-11T09:15:20.821Z,-0.03
2022-12-11T09:16:20.801Z,0.21
2022-12-11T09:17:20.845Z,0.41
2022-12-11T09:18:20.695Z,0.51
2022-12-11T09:19:20.731Z,0.55
2022-12-11T09:20:20.618Z,0.61
2022-12-11T09:21:20.670Z,0.53
2022-12-11T09:22:20.629Z,0.57
2022-12-11T09:23:20.698Z,0.44
2022-12-11T09:24:20.539Z,0.36
2022-12-11T09:25:20.688Z,0.17
2022-12-11T09:26:20.723Z,0.03
2022-12-11T09:27:20.552Z,-0.04
2022-12-11T09:28:20.799Z,-0.15
2022-12-11T09:29:20.527Z,-0.22
2022-12-11T09:30:20.705Z,-0.34
2022-12-11T09:31:20.604Z,-0.47
2022-12-11T09:32:20.434Z,-0.55
2022-12-11T09:33:20.742Z,-0.61
2022-12-11T09:34:22.703Z,-0.72
2022-12-11T09:35:20.447Z,-0.78
2022-12-11T09:36:20.650Z,-0.92
2022-12-11T09:37:20.413Z,-0.98
2022-12-11T09:38:20.476Z,-1.07
2022-12-11T09:39:20.478Z,-1.13
2022-12-11T09:40:20.509Z,-1.13
2022-12-11T09:41:20.354Z,-1.10
2022-12-11T09:42:20.539Z,-1.09
2022-12-11T09:43:20.318Z,-1.04
2022-12-11T09:44:20.535Z,-1.05
2022-12-11T09:45:20.517Z,-1.09
2022-12-11T09:46:23.580Z,-1.16
2022-12-11T09:47:20.623Z,-1.19
2022-12-11T09:48:20.293Z,-1.23
2022-12-11T09:49:20.384Z,-1.30
2022-12-11T09:50:20.384Z,-1.35
2022-12-11T09:51:20.486Z,-1.34
2022-12-11T09:52:20.377Z,-1.31
2022-12-11T09:53:20.314Z,-1.28
2022-12-11T09:54:20.306Z,-1.27
2022-12-11T09:55:20.259Z,-1.25
2022-12-11T09:56:20.543Z,-1.23
2022-12-11T09:57:20.249Z,-1.23
2022-12-11T09:58:20.349Z,-1.22
2022-12-11T09:59:20.177Z,-1.23
2022-12-11T10:00:20.352Z,-1.23
2022-12-11T10:01:20.167Z,-1.19
2022-12-11T10:02:20.364Z,-1.17
2022-12-11T10:03:20.127Z,-1.13
2022-12-11T10:04:20.274Z,-1.05
2022-12-11T10:05:20.104Z,-1.02
2022-12-11T10:06:20.301Z,-0.95
2022-12-11T10:07:20.059Z,-0.85
2022-12-11T10:08:20.339Z,-0.76
2022-12-11T10:09:20.040Z,-0.73
2022-12-11T10:10:20.126Z,-0.65
2022-12-11T10:11:20.058Z,-0.64
2022-12-11T10:12:20.089Z,-0.67
2022-12-11T10:13:19.980Z,-0.67
2022-12-11T10:14:20.116Z,-0.73
2022-12-11T10:16:11.783Z,-0.80
2022-12-11T10:17:12.685Z,-0.80
2022-12-11T10:18:12.770Z,-0.85
2022-12-11T10:19:12.716Z,-0.83
2022-12-11T10:20:12.824Z,-0.89
2022-12-11T10:21:12.574Z,-0.89
2022-12-11T10:22:12.786Z,-0.86
2022-12-11T10:23:12.629Z,-0.94
2022-12-11T10:24:12.697Z,-0.94
2022-12-11T10:25:12.879Z,-0.92
2022-12-11T10:26:12.704Z,-0.85
2022-12-11T10:27:12.543Z,-0.82
2022-12-11T10:28:12.722Z,-0.82
2022-12-11T10:29:12.530Z,-0.79
2022-12-11T10:30:12.665Z,-0.82
2022-12-11T10:31:12.521Z,-0.82
2022-12-11T10:32:12.569Z,-0.80
2022-12-11T10:33:12.538Z,-0.92
2022-12-11T10:34:12.566Z,-1.02
2022-12-11T10:35:12.765Z,-1.07
2022-12-11T10:36:12.666Z,-1.10
2022-12-11T10:37:12.446Z,-1.04
2022-12-11T10:38:12.668Z,-1.02
2022-12-11T10:39:12.847Z,-1.01
2022-12-11T10:40:12.395Z,-1.04
2022-12-11T10:41:12.559Z,-1.07
2022-12-11T10:42:12.395Z,-1.10
2022-12-11T10:43:12.576Z,-1.07
2022-12-11T10:44:12.556Z,-1.05
2022-12-11T10:45:12.679Z,-1.02
2022-12-11T10:46:12.636Z,-0.97
2022-12-11T10:47:12.397Z,-0.98
2022-12-11T10:48:12.391Z,-0.97
2022-12-11T10:49:12.318Z,-0.91
2022-12-11T10:50:12.436Z,-0.89
2022-12-11T10:51:12.338Z,-0.92
2022-12-11T10:52:12.515Z,-0.98
2022-12-11T10:53:12.289Z,-1.10
2022-12-11T10:54:12.317Z,-1.13
2022-12-11T10:55:12.349Z,-1.13
2022-12-11T10:56:12.325Z,-1.10
2022-12-11T10:57:12.211Z,-1.16
2022-12-11T10:58:12.317Z,-1.22
2022-12-11T10:59:12.144Z,-1.31
2022-12-11T11:00:12.356Z,-1.35
2022-12-11T11:01:12.157Z,-1.34
2022-12-11T11:02:12.242Z,-1.33
2022-12-11T11:03:12.171Z,-1.28
2022-12-11T11:04:12.152Z,-1.23
2022-12-11T11:05:12.713Z,-1.20
2022-12-11T11:06:12.274Z,-1.22
2022-12-11T11:07:12.071Z,-1.25
2022-12-11T11:08:12.370Z,-1.25
2022-12-11T11:09:12.050Z,-1.28
2022-12-11T11:10:12.318Z,-1.30
2022-12-11T11:11:11.954Z,-1.33
2022-12-11T11:12:12.078Z,-1.31
2022-12-11T11:13:11.942Z,-1.22
2022-12-11T11:14:12.218Z,-1.17
2022-12-11T11:15:12.470Z,-1.12
2022-12-11T11:16:12.081Z,-1.05
2022-12-11T11:17:12.166Z,-1.07
2022-12-11T11:18:11.978Z,-1.12
2022-12-11T11:19:12.089Z,-1.07
2022-12-11T11:20:11.932Z,-1.01
2022-12-11T11:21:12.050Z,-1.02
2022-12-11T11:22:11.920Z,-0.99
2022-12-11T11:23:12.017Z,-0.86
2022-12-11T11:24:11.803Z,-0.82
2022-12-11T11:25:12.317Z,-0.82
2022-12-11T11:26:12.010Z,-0.82
2022-12-11T11:27:13.467Z,-0.76
2022-12-11T11:28:11.800Z,-0.62
2022-12-11T11:29:11.920Z,-0.55
2022-12-11T11:30:11.752Z,-0.46
2022-12-11T11:31:12.027Z,-0.40
2022-12-11T11:32:11.699Z,-0.33
2022-12-11T11:33:11.825Z,-0.33
2022-12-11T11:34:11.696Z,-0.36
2022-12-11T11:35:12.330Z,-0.54
2022-12-11T11:36:11.774Z,-0.58
2022-12-11T11:37:11.648Z,-0.61
2022-12-11T11:38:11.685Z,-0.58
2022-12-11T11:39:11.706Z,-0.52
2022-12-11T11:40:11.757Z,-0.58
2022-12-11T11:41:14.859Z,-0.67
2022-12-11T11:42:11.744Z,-0.62
2022-12-11T11:43:11.585Z,-0.55
2022-12-11T11:44:11.732Z,-0.46
2022-12-11T11:45:11.804Z,-0.42
2022-12-11T11:46:11.773Z,-0.29
2022-12-11T11:47:11.555Z,-0.21
2022-12-11T11:48:11.879Z,-0.10
2022-12-11T11:49:11.584Z,-0.08
2022-12-11T11:50:11.553Z,-0.04
2022-12-11T11:51:11.513Z,0.04
2022-12-11T11:52:11.566Z,0.15
2022-12-11T11:53:11.494Z,0.23
2022-12-11T11:54:11.573Z,0.28
2022-12-11T11:55:11.839Z,0.28
2022-12-11T11:56:11.652Z,0.33
2022-12-11T11:57:11.541Z,0.35
2022-12-11T11:58:11.537Z,0.36
2022-12-11T11:59:11.430Z,0.44
2022-12-11T12:00:11.752Z,0.53
2022-12-11T12:01:11.420Z,0.68
2022-12-11T12:02:11.456Z,0.91
2022-12-11T12:03:11.424Z,1.14
2022-12-11T12:04:11.576Z,1.36
2022-12-11T12:05:11.578Z,1.65
2022-12-11T12:06:15.132Z,1.72
2022-12-11T12:07:11.427Z,1.70
2022-12-11T12:08:11.283Z,1.65
2022-12-11T12:09:11.401Z,1.63
2022-12-11T12:10:11.271Z,1.60
2022-12-11T12:11:11.306Z,1.84
2022-12-11T12:12:11.212Z,2.09
2022-12-11T12:13:36.967Z,2.42
2022-12-11T12:14:35.887Z,2.57
2022-12-11T12:15:11.497Z,2.89
2022-12-11T12:16:43.736Z,3.15
2022-12-11T12:17:11.245Z,3.33
2022-12-11T12:18:11.325Z,3.31
2022-12-11T12:19:11.126Z,3.18
2022-12-11T12:20:11.152Z,3.18
2022-12-11T12:21:11.126Z,3.26
2022-12-11T12:22:11.285Z,3.42
2022-12-11T12:23:11.128Z,3.60
2022-12-11T12:24:11.080Z,3.79
2022-12-11T12:25:11.289Z,3.70
2022-12-11T12:26:11.026Z,3.55
2022-12-11T12:27:43.280Z,3.29
2022-12-11T12:28:11.156Z,3.05
2022-12-11T12:29:11.017Z,2.84
2022-12-11T12:30:11.142Z,2.57
2022-12-11T12:31:11.021Z,2.48
2022-12-11T12:32:11.029Z,2.31
2022-12-11T12:33:11.003Z,2.24
2022-12-11T12:34:11.096Z,2.16
2022-12-11T12:35:11.382Z,2.02
2022-12-11T12:36:11.083Z,1.95
2022-12-11T12:37:10.935Z,1.95
2022-12-11T12:38:10.984Z,2.02
2022-12-11T12:39:10.900Z,1.99
2022-12-11T12:40:11.008Z,2.09
2022-12-11T12:41:10.894Z,2.06
2022-12-11T12:42:10.996Z,2.05
2022-12-11T12:43:10.942Z,2.06
2022-12-11T12:44:10.989Z,2.09
2022-12-11T12:45:11.255Z,2.09
2022-12-11T12:46:11.060Z,2.07
2022-12-11T12:47:10.795Z,2.06
2022-12-11T12:48:10.862Z,2.10
2022-12-11T12:49:10.863Z,2.16
2022-12-11T12:50:10.774Z,2.16
2022-12-11T12:51:10.867Z,2.05
2022-12-11T12:52:10.751Z,2.03
2022-12-11T12:53:10.783Z,2.02
2022-12-11T12:54:12.553Z,2.02
2022-12-11T12:55:11.178Z,1.90
2022-12-11T12:56:10.665Z,1.88